sensor_id;sensor_type;location;lat;lon;timestamp;temperature;humidity
23827;DHT22;12094;50.822;4.376;2024-01-25T00:00:10;10.00;99.90
23827;DHT22;12094;50.822;4.376;2024-01-25T00:02:38;9.90;99.90
23827;DHT22;12094;50.822;4.376;2024-01-25T00:05:06;9.90;99.90
23827;DHT22;12094;50.822;4.376;2024-01-25T00:07:44;10.00;99.90
23827;DHT22;12094;50.822;4.376;2024-01-25T00:10:18;10.00;99.90
23827;DHT22;12094;50.822;4.376;2024-01-25T00:12:45;9.90;99.90
23827;DHT22;12094;50.822;4.376;2024-01-25T00:15:12;9.80;99.90
23827;DHT22;12094;50.822;4.376;2024-01-25T00:17:45;9.80;99.90
23827;DHT22;12094;50.822;4.376;2024-01-25T00:20:13;9.70;99.90
23827;DHT22;12094;50.822;4.376;2024-01-25T00:25:13;9.70;99.90
23827;DHT22;12094;50.822;4.376;2024-01-25T00:27:44;9.70;99.90
23827;DHT22;12094;50.822;4.376;2024-01-25T00:30:13;9.80;99.90
23827;DHT22;12094;50.822;4.376;2024-01-25T00:32:41;9.70;99.90
23827;DHT22;12094;50.822;4.376;2024-01-25T00:35:08;9.60;99.90
23827;DHT22;12094;50.822;4.376;2024-01-25T00:37:40;9.60;99.90
23827;DHT22;12094;50.822;4.376;2024-01-25T00:40:13;9.60;99.90
23827;DHT22;12094;50.822;4.376;2024-01-25T00:42:41;9.60;99.90
23827;DHT22;12094;50.822;4.376;2024-01-25T00:45:09;9.50;99.90
23827;DHT22;12094;50.822;4.376;2024-01-25T00:47:38;9.50;99.90
23827;DHT22;12094;50.822;4.376;2024-01-25T00:50:06;9.40;99.90
23827;DHT22;12094;50.822;4.376;2024-01-25T00:52:35;9.30;99.90
23827;DHT22;12094;50.822;4.376;2024-01-25T00:55:02;9.30;99.90
23827;DHT22;12094;50.822;4.376;2024-01-25T00:57:30;9.40;99.90
23827;DHT22;12094;50.822;4.376;2024-01-25T00:59:58;9.40;99.90
23827;DHT22;12094;50.822;4.376;2024-01-25T01:02:27;9.30;99.90
23827;DHT22;12094;50.822;4.376;2024-01-25T01:04:57;9.30;99.90
23827;DHT22;12094;50.822;4.376;2024-01-25T01:07:25;9.20;99.90
23827;DHT22;12094;50.822;4.376;2024-01-25T01:09:53;9.20;99.90
23827;DHT22;12094;50.822;4.376;2024-01-25T01:12:20;9.20;99.90
23827;DHT22;12094;50.822;4.376;2024-01-25T01:14:48;9.20;99.90
23827;DHT22;12094;50.822;4.376;2024-01-25T01:17:18;9.20;99.90
23827;DHT22;12094;50.822;4.376;2024-01-25T01:19:47;9.30;99.90
23827;DHT22;12094;50.822;4.376;2024-01-25T01:22:14;9.30;99.90
23827;DHT22;12094;50.822;4.376;2024-01-25T01:24:46;9.30;99.90
23827;DHT22;12094;50.822;4.376;2024-01-25T01:27:14;9.30;99.90
23827;DHT22;12094;50.822;4.376;2024-01-25T01:29:41;9.20;99.90
23827;DHT22;12094;50.822;4.376;2024-01-25T01:32:08;9.10;99.90
23827;DHT22;12094;50.822;4.376;2024-01-25T01:34:35;9.10;99.90
23827;DHT22;12094;50.822;4.376;2024-01-25T01:37:03;9.00;99.90
23827;DHT22;12094;50.822;4.376;2024-01-25T01:39:31;8.90;99.90
23827;DHT22;12094;50.822;4.376;2024-01-25T01:42:00;8.80;99.90
23827;DHT22;12094;50.822;4.376;2024-01-25T01:44:28;8.80;99.90
23827;DHT22;12094;50.822;4.376;2024-01-25T01:46:54;8.90;99.90
23827;DHT22;12094;50.822;4.376;2024-01-25T01:49:21;8.90;99.90
23827;DHT22;12094;50.822;4.376;2024-01-25T01:51:50;8.80;99.90
23827;DHT22;12094;50.822;4.376;2024-01-25T01:54:18;8.90;99.90
23827;DHT22;12094;50.822;4.376;2024-01-25T01:56:46;8.80;99.90
23827;DHT22;12094;50.822;4.376;2024-01-25T01:59:14;8.70;99.90
23827;DHT22;12094;50.822;4.376;2024-01-25T02:01:42;8.60;99.90
23827;DHT22;12094;50.822;4.376;2024-01-25T02:04:10;8.60;99.90
23827;DHT22;12094;50.822;4.376;2024-01-25T02:06:42;8.60;99.90
23827;DHT22;12094;50.822;4.376;2024-01-25T02:09:10;8.70;99.90
23827;DHT22;12094;50.822;4.376;2024-01-25T02:11:39;8.80;99.90
23827;DHT22;12094;50.822;4.376;2024-01-25T02:14:06;8.70;99.90
23827;DHT22;12094;50.822;4.376;2024-01-25T02:16:40;8.60;99.90
23827;DHT22;12094;50.822;4.376;2024-01-25T02:19:08;8.60;99.90
23827;DHT22;12094;50.822;4.376;2024-01-25T02:21:35;8.60;99.90
23827;DHT22;12094;50.822;4.376;2024-01-25T02:24:04;8.50;99.90
23827;DHT22;12094;50.822;4.376;2024-01-25T02:26:31;8.60;99.90
23827;DHT22;12094;50.822;4.376;2024-01-25T02:28:58;8.50;99.90
23827;DHT22;12094;50.822;4.376;2024-01-25T02:31:26;8.50;99.90
23827;DHT22;12094;50.822;4.376;2024-01-25T02:33:54;8.40;99.90
23827;DHT22;12094;50.822;4.376;2024-01-25T02:36:22;8.40;99.90
23827;DHT22;12094;50.822;4.376;2024-01-25T02:41:23;8.40;99.90
23827;DHT22;12094;50.822;4.376;2024-01-25T02:43:52;8.30;99.90
23827;DHT22;12094;50.822;4.376;2024-01-25T02:46:19;8.30;99.90
23827;DHT22;12094;50.822;4.376;2024-01-25T02:48:46;8.20;99.90
23827;DHT22;12094;50.822;4.376;2024-01-25T02:51:13;8.20;99.90
23827;DHT22;12094;50.822;4.376;2024-01-25T02:53:42;8.20;99.90
23827;DHT22;12094;50.822;4.376;2024-01-25T02:56:11;8.20;99.90
23827;DHT22;12094;50.822;4.376;2024-01-25T02:58:44;8.20;99.90
23827;DHT22;12094;50.822;4.376;2024-01-25T03:01:11;8.20;99.90
23827;DHT22;12094;50.822;4.376;2024-01-25T03:03:42;8.20;99.90
23827;DHT22;12094;50.822;4.376;2024-01-25T03:06:10;8.20;99.90
23827;DHT22;12094;50.822;4.376;2024-01-25T03:08:39;8.20;99.90
23827;DHT22;12094;50.822;4.376;2024-01-25T03:11:07;8.20;99.90
23827;DHT22;12094;50.822;4.376;2024-01-25T03:13:36;8.20;99.90
23827;DHT22;12094;50.822;4.376;2024-01-25T03:16:04;8.30;99.90
23827;DHT22;12094;50.822;4.376;2024-01-25T03:18:32;8.20;99.90
23827;DHT22;12094;50.822;4.376;2024-01-25T03:21:00;8.10;99.90
23827;DHT22;12094;50.822;4.376;2024-01-25T03:23:28;8.10;99.90
23827;DHT22;12094;50.822;4.376;2024-01-25T03:28:25;8.30;99.90
23827;DHT22;12094;50.822;4.376;2024-01-25T03:30:53;8.20;99.90
23827;DHT22;12094;50.822;4.376;2024-01-25T03:33:20;8.10;99.90
23827;DHT22;12094;50.822;4.376;2024-01-25T03:35:48;8.00;99.90
23827;DHT22;12094;50.822;4.376;2024-01-25T03:38:15;8.00;99.90
23827;DHT22;12094;50.822;4.376;2024-01-25T03:40:42;8.10;99.90
23827;DHT22;12094;50.822;4.376;2024-01-25T03:43:13;8.00;99.90
23827;DHT22;12094;50.822;4.376;2024-01-25T03:45:50;8.00;99.90
23827;DHT22;12094;50.822;4.376;2024-01-25T03:48:18;7.90;99.90
23827;DHT22;12094;50.822;4.376;2024-01-25T03:50:47;8.00;99.90
23827;DHT22;12094;50.822;4.376;2024-01-25T03:53:14;8.00;99.90
23827;DHT22;12094;50.822;4.376;2024-01-25T03:55:42;8.00;99.90
23827;DHT22;12094;50.822;4.376;2024-01-25T03:58:10;7.90;99.90
23827;DHT22;12094;50.822;4.376;2024-01-25T04:00:39;7.90;99.90
23827;DHT22;12094;50.822;4.376;2024-01-25T04:03:07;7.90;99.90
23827;DHT22;12094;50.822;4.376;2024-01-25T04:05:36;8.00;99.90
23827;DHT22;12094;50.822;4.376;2024-01-25T04:08:05;8.00;99.90
23827;DHT22;12094;50.822;4.376;2024-01-25T04:10:33;7.90;99.90
23827;DHT22;12094;50.822;4.376;2024-01-25T04:13:01;7.90;99.90
23827;DHT22;12094;50.822;4.376;2024-01-25T04:15:30;7.80;99.90
23827;DHT22;12094;50.822;4.376;2024-01-25T04:18:00;7.80;99.90
23827;DHT22;12094;50.822;4.376;2024-01-25T04:20:28;7.80;99.90
23827;DHT22;12094;50.822;4.376;2024-01-25T04:22:55;7.70;99.90
23827;DHT22;12094;50.822;4.376;2024-01-25T04:25:23;7.70;99.90
23827;DHT22;12094;50.822;4.376;2024-01-25T04:27:51;7.70;99.90
23827;DHT22;12094;50.822;4.376;2024-01-25T04:32:48;7.80;99.90
23827;DHT22;12094;50.822;4.376;2024-01-25T04:35:17;7.90;99.90
23827;DHT22;12094;50.822;4.376;2024-01-25T04:37:45;7.90;99.90
23827;DHT22;12094;50.822;4.376;2024-01-25T04:40:13;7.90;99.90
23827;DHT22;12094;50.822;4.376;2024-01-25T04:42:42;7.80;99.90
23827;DHT22;12094;50.822;4.376;2024-01-25T04:45:13;7.70;99.90
23827;DHT22;12094;50.822;4.376;2024-01-25T04:47:40;7.60;99.90
23827;DHT22;12094;50.822;4.376;2024-01-25T04:50:10;7.60;99.90
23827;DHT22;12094;50.822;4.376;2024-01-25T04:52:38;7.50;99.90
23827;DHT22;12094;50.822;4.376;2024-01-25T04:55:05;7.50;99.90
23827;DHT22;12094;50.822;4.376;2024-01-25T04:57:32;7.50;99.90
23827;DHT22;12094;50.822;4.376;2024-01-25T05:00:00;7.40;99.90
23827;DHT22;12094;50.822;4.376;2024-01-25T05:02:30;7.40;99.90
23827;DHT22;12094;50.822;4.376;2024-01-25T05:04:57;7.40;99.90
23827;DHT22;12094;50.822;4.376;2024-01-25T05:07:25;7.40;99.90
23827;DHT22;12094;50.822;4.376;2024-01-25T05:09:58;7.30;99.90
23827;DHT22;12094;50.822;4.376;2024-01-25T05:12:30;7.40;99.90
23827;DHT22;12094;50.822;4.376;2024-01-25T05:14:59;7.30;99.90
23827;DHT22;12094;50.822;4.376;2024-01-25T05:17:27;7.30;99.90
23827;DHT22;12094;50.822;4.376;2024-01-25T05:19:56;7.40;99.90
23827;DHT22;12094;50.822;4.376;2024-01-25T05:22:23;7.30;99.90
23827;DHT22;12094;50.822;4.376;2024-01-25T05:24:51;7.30;99.90
23827;DHT22;12094;50.822;4.376;2024-01-25T05:27:24;7.40;99.90
23827;DHT22;12094;50.822;4.376;2024-01-25T05:29:52;7.40;99.90
23827;DHT22;12094;50.822;4.376;2024-01-25T05:32:22;7.30;99.90
23827;DHT22;12094;50.822;4.376;2024-01-25T05:34:49;7.30;99.90
23827;DHT22;12094;50.822;4.376;2024-01-25T05:37:17;7.30;99.90
23827;DHT22;12094;50.822;4.376;2024-01-25T05:39:46;7.30;99.90
23827;DHT22;12094;50.822;4.376;2024-01-25T05:42:15;7.30;99.90
23827;DHT22;12094;50.822;4.376;2024-01-25T05:44:44;7.30;99.90
23827;DHT22;12094;50.822;4.376;2024-01-25T05:47:10;7.20;99.90
23827;DHT22;12094;50.822;4.376;2024-01-25T05:49:38;7.30;99.90
23827;DHT22;12094;50.822;4.376;2024-01-25T05:52:07;7.30;99.90
23827;DHT22;12094;50.822;4.376;2024-01-25T05:54:33;7.30;99.90
23827;DHT22;12094;50.822;4.376;2024-01-25T05:57:02;7.30;99.90
23827;DHT22;12094;50.822;4.376;2024-01-25T05:59:31;7.30;99.90
23827;DHT22;12094;50.822;4.376;2024-01-25T06:01:58;7.30;99.90
23827;DHT22;12094;50.822;4.376;2024-01-25T06:04:27;7.20;99.90
23827;DHT22;12094;50.822;4.376;2024-01-25T06:09:26;7.20;99.90
23827;DHT22;12094;50.822;4.376;2024-01-25T06:11:55;7.30;99.90
23827;DHT22;12094;50.822;4.376;2024-01-25T06:14:23;7.20;99.90
23827;DHT22;12094;50.822;4.376;2024-01-25T06:19:42;7.30;99.90
23827;DHT22;12094;50.822;4.376;2024-01-25T06:22:09;7.20;99.90
23827;DHT22;12094;50.822;4.376;2024-01-25T06:24:40;7.20;99.90
23827;DHT22;12094;50.822;4.376;2024-01-25T06:27:07;7.20;99.90
23827;DHT22;12094;50.822;4.376;2024-01-25T06:32:04;7.20;99.90
23827;DHT22;12094;50.822;4.376;2024-01-25T06:34:42;7.20;99.90
23827;DHT22;12094;50.822;4.376;2024-01-25T06:37:12;7.20;99.90
23827;DHT22;12094;50.822;4.376;2024-01-25T06:39:58;7.20;99.90
23827;DHT22;12094;50.822;4.376;2024-01-25T06:42:26;7.20;99.90
23827;DHT22;12094;50.822;4.376;2024-01-25T06:47:23;7.20;99.90
23827;DHT22;12094;50.822;4.376;2024-01-25T06:49:53;7.20;99.90
23827;DHT22;12094;50.822;4.376;2024-01-25T06:52:20;7.20;99.90
23827;DHT22;12094;50.822;4.376;2024-01-25T06:54:48;7.20;99.90
23827;DHT22;12094;50.822;4.376;2024-01-25T06:57:15;7.20;99.90
23827;DHT22;12094;50.822;4.376;2024-01-25T06:59:43;7.20;99.90
23827;DHT22;12094;50.822;4.376;2024-01-25T07:02:12;7.10;99.90
23827;DHT22;12094;50.822;4.376;2024-01-25T07:04:40;7.10;99.90
23827;DHT22;12094;50.822;4.376;2024-01-25T07:07:09;7.10;99.90
23827;DHT22;12094;50.822;4.376;2024-01-25T07:09:36;7.00;99.90
23827;DHT22;12094;50.822;4.376;2024-01-25T07:12:05;6.90;99.90
23827;DHT22;12094;50.822;4.376;2024-01-25T07:17:04;6.90;99.90
23827;DHT22;12094;50.822;4.376;2024-01-25T07:19:37;6.90;99.90
23827;DHT22;12094;50.822;4.376;2024-01-25T07:22:04;6.80;99.90
23827;DHT22;12094;50.822;4.376;2024-01-25T07:24:33;6.80;99.90
23827;DHT22;12094;50.822;4.376;2024-01-25T07:27:01;6.80;99.90
23827;DHT22;12094;50.822;4.376;2024-01-25T07:29:30;6.70;99.90
23827;DHT22;12094;50.822;4.376;2024-01-25T07:31:57;6.70;99.90
23827;DHT22;12094;50.822;4.376;2024-01-25T07:34:27;6.70;99.90
23827;DHT22;12094;50.822;4.376;2024-01-25T07:36:54;6.60;99.90
23827;DHT22;12094;50.822;4.376;2024-01-25T07:39:22;6.60;99.90
23827;DHT22;12094;50.822;4.376;2024-01-25T07:41:51;6.70;99.90
23827;DHT22;12094;50.822;4.376;2024-01-25T07:46:51;6.70;99.90
23827;DHT22;12094;50.822;4.376;2024-01-25T07:49:21;6.70;99.90
23827;DHT22;12094;50.822;4.376;2024-01-25T07:51:48;6.60;99.90
23827;DHT22;12094;50.822;4.376;2024-01-25T07:54:17;6.50;99.90
23827;DHT22;12094;50.822;4.376;2024-01-25T07:56:44;6.50;99.90
23827;DHT22;12094;50.822;4.376;2024-01-25T07:59:10;6.60;99.90
23827;DHT22;12094;50.822;4.376;2024-01-25T08:01:37;6.60;99.90
23827;DHT22;12094;50.822;4.376;2024-01-25T08:04:05;6.70;99.90
23827;DHT22;12094;50.822;4.376;2024-01-25T08:06:33;6.60;99.90
23827;DHT22;12094;50.822;4.376;2024-01-25T08:09:06;6.70;99.90
23827;DHT22;12094;50.822;4.376;2024-01-25T08:11:37;6.70;99.90
23827;DHT22;12094;50.822;4.376;2024-01-25T08:14:05;6.70;99.90
23827;DHT22;12094;50.822;4.376;2024-01-25T08:16:32;6.60;99.90
23827;DHT22;12094;50.822;4.376;2024-01-25T08:19:03;6.70;99.90
23827;DHT22;12094;50.822;4.376;2024-01-25T08:21:32;6.70;99.90
23827;DHT22;12094;50.822;4.376;2024-01-25T08:24:00;6.60;99.90
23827;DHT22;12094;50.822;4.376;2024-01-25T08:26:29;6.60;99.90
23827;DHT22;12094;50.822;4.376;2024-01-25T08:28:57;6.60;99.90
23827;DHT22;12094;50.822;4.376;2024-01-25T08:31:25;6.60;99.90
23827;DHT22;12094;50.822;4.376;2024-01-25T08:33:56;6.60;99.90
23827;DHT22;12094;50.822;4.376;2024-01-25T08:36:23;6.60;99.90
23827;DHT22;12094;50.822;4.376;2024-01-25T08:38:51;6.60;99.90
23827;DHT22;12094;50.822;4.376;2024-01-25T08:43:49;6.70;99.90
23827;DHT22;12094;50.822;4.376;2024-01-25T08:48:47;6.70;99.90
23827;DHT22;12094;50.822;4.376;2024-01-25T08:51:14;6.80;99.90
23827;DHT22;12094;50.822;4.376;2024-01-25T08:53:42;6.80;99.90
23827;DHT22;12094;50.822;4.376;2024-01-25T08:56:09;6.70;99.90
23827;DHT22;12094;50.822;4.376;2024-01-25T08:58:37;6.80;99.90
23827;DHT22;12094;50.822;4.376;2024-01-25T09:03:35;6.90;99.90
23827;DHT22;12094;50.822;4.376;2024-01-25T09:06:04;7.00;99.90
23827;DHT22;12094;50.822;4.376;2024-01-25T09:08:35;7.00;99.90
23827;DHT22;12094;50.822;4.376;2024-01-25T09:11:08;7.00;99.90
23827;DHT22;12094;50.822;4.376;2024-01-25T09:13:35;7.00;99.90
23827;DHT22;12094;50.822;4.376;2024-01-25T09:18:44;7.10;99.90
23827;DHT22;12094;50.822;4.376;2024-01-25T09:21:15;7.20;99.90
23827;DHT22;12094;50.822;4.376;2024-01-25T09:23:43;7.30;99.90
23827;DHT22;12094;50.822;4.376;2024-01-25T09:26:15;7.30;99.90
23827;DHT22;12094;50.822;4.376;2024-01-25T09:28:42;7.40;99.90
23827;DHT22;12094;50.822;4.376;2024-01-25T09:31:12;7.50;99.90
23827;DHT22;12094;50.822;4.376;2024-01-25T09:33:45;7.60;99.90
23827;DHT22;12094;50.822;4.376;2024-01-25T09:36:14;7.60;99.90
23827;DHT22;12094;50.822;4.376;2024-01-25T09:38:44;7.70;99.90
23827;DHT22;12094;50.822;4.376;2024-01-25T09:41:11;7.80;99.90
23827;DHT22;12094;50.822;4.376;2024-01-25T09:43:38;7.80;99.90
23827;DHT22;12094;50.822;4.376;2024-01-25T09:46:07;7.80;99.90
23827;DHT22;12094;50.822;4.376;2024-01-25T09:48:34;7.90;99.90
23827;DHT22;12094;50.822;4.376;2024-01-25T09:51:01;8.00;99.90
23827;DHT22;12094;50.822;4.376;2024-01-25T09:53:30;8.00;99.90
23827;DHT22;12094;50.822;4.376;2024-01-25T09:56:03;8.00;99.90
23827;DHT22;12094;50.822;4.376;2024-01-25T10:01:07;8.30;99.90
23827;DHT22;12094;50.822;4.376;2024-01-25T10:03:36;8.30;99.90
23827;DHT22;12094;50.822;4.376;2024-01-25T10:06:04;8.40;99.90
23827;DHT22;12094;50.822;4.376;2024-01-25T10:08:33;8.40;99.90
23827;DHT22;12094;50.822;4.376;2024-01-25T10:11:02;8.50;99.90
23827;DHT22;12094;50.822;4.376;2024-01-25T10:13:29;8.50;99.90
23827;DHT22;12094;50.822;4.376;2024-01-25T10:15:58;8.50;99.90
23827;DHT22;12094;50.822;4.376;2024-01-25T10:18:26;8.60;99.90
23827;DHT22;12094;50.822;4.376;2024-01-25T10:20:56;8.60;99.90
23827;DHT22;12094;50.822;4.376;2024-01-25T10:23:24;8.60;99.90
23827;DHT22;12094;50.822;4.376;2024-01-25T10:25:53;8.60;99.90
23827;DHT22;12094;50.822;4.376;2024-01-25T10:28:23;8.50;99.90
23827;DHT22;12094;50.822;4.376;2024-01-25T10:30:55;8.50;99.90
23827;DHT22;12094;50.822;4.376;2024-01-25T10:33:27;8.50;99.90
23827;DHT22;12094;50.822;4.376;2024-01-25T10:35:58;8.50;99.90
23827;DHT22;12094;50.822;4.376;2024-01-25T10:38:33;8.50;99.90
23827;DHT22;12094;50.822;4.376;2024-01-25T10:41:04;8.60;99.90
23827;DHT22;12094;50.822;4.376;2024-01-25T10:43:32;8.80;99.90
23827;DHT22;12094;50.822;4.376;2024-01-25T10:46:01;8.80;99.90
23827;DHT22;12094;50.822;4.376;2024-01-25T10:48:31;8.90;99.90
23827;DHT22;12094;50.822;4.376;2024-01-25T10:51:00;9.00;99.90
23827;DHT22;12094;50.822;4.376;2024-01-25T10:53:34;9.00;99.90
23827;DHT22;12094;50.822;4.376;2024-01-25T10:56:02;8.90;99.90
23827;DHT22;12094;50.822;4.376;2024-01-25T11:01:08;8.90;99.90
23827;DHT22;12094;50.822;4.376;2024-01-25T11:03:47;8.90;99.90
23827;DHT22;12094;50.822;4.376;2024-01-25T11:06:15;8.90;99.90
23827;DHT22;12094;50.822;4.376;2024-01-25T11:08:45;8.90;99.90
23827;DHT22;12094;50.822;4.376;2024-01-25T11:11:15;9.00;99.90
23827;DHT22;12094;50.822;4.376;2024-01-25T11:13:44;9.10;99.90
23827;DHT22;12094;50.822;4.376;2024-01-25T11:16:24;9.10;99.90
23827;DHT22;12094;50.822;4.376;2024-01-25T11:18:55;9.00;99.90
23827;DHT22;12094;50.822;4.376;2024-01-25T11:24:01;9.00;99.90
23827;DHT22;12094;50.822;4.376;2024-01-25T11:26:32;9.00;99.90
23827;DHT22;12094;50.822;4.376;2024-01-25T11:29:00;9.00;99.90
23827;DHT22;12094;50.822;4.376;2024-01-25T11:31:30;9.10;99.90
23827;DHT22;12094;50.822;4.376;2024-01-25T11:34:03;9.10;99.90
23827;DHT22;12094;50.822;4.376;2024-01-25T11:36:33;9.10;99.90
23827;DHT22;12094;50.822;4.376;2024-01-25T11:39:01;9.20;99.90
23827;DHT22;12094;50.822;4.376;2024-01-25T11:41:30;9.20;99.90
23827;DHT22;12094;50.822;4.376;2024-01-25T11:46:31;9.30;99.90
23827;DHT22;12094;50.822;4.376;2024-01-25T11:49:05;9.40;99.90
23827;DHT22;12094;50.822;4.376;2024-01-25T11:51:34;9.40;99.90
23827;DHT22;12094;50.822;4.376;2024-01-25T11:54:02;9.50;99.90
23827;DHT22;12094;50.822;4.376;2024-01-25T11:56:38;9.40;99.90
23827;DHT22;12094;50.822;4.376;2024-01-25T11:59:12;9.50;99.90
23827;DHT22;12094;50.822;4.376;2024-01-25T12:01:41;9.50;99.90
23827;DHT22;12094;50.822;4.376;2024-01-25T12:04:12;9.50;99.90
23827;DHT22;12094;50.822;4.376;2024-01-25T12:06:40;9.50;99.90
23827;DHT22;12094;50.822;4.376;2024-01-25T12:09:10;9.50;99.90
23827;DHT22;12094;50.822;4.376;2024-01-25T12:11:40;9.50;99.90
23827;DHT22;12094;50.822;4.376;2024-01-25T12:14:12;9.50;99.90
23827;DHT22;12094;50.822;4.376;2024-01-25T12:16:40;9.50;99.90
23827;DHT22;12094;50.822;4.376;2024-01-25T12:19:13;9.50;99.90
23827;DHT22;12094;50.822;4.376;2024-01-25T12:21:44;9.50;99.90
23827;DHT22;12094;50.822;4.376;2024-01-25T12:24:11;9.50;99.90
23827;DHT22;12094;50.822;4.376;2024-01-25T12:26:38;9.50;99.90
23827;DHT22;12094;50.822;4.376;2024-01-25T12:29:05;9.50;99.90
23827;DHT22;12094;50.822;4.376;2024-01-25T12:31:34;9.60;99.90
23827;DHT22;12094;50.822;4.376;2024-01-25T12:34:01;9.60;99.90
23827;DHT22;12094;50.822;4.376;2024-01-25T12:36:30;9.60;99.90
23827;DHT22;12094;50.822;4.376;2024-01-25T12:38:57;9.60;99.90
23827;DHT22;12094;50.822;4.376;2024-01-25T12:41:30;9.50;99.90
23827;DHT22;12094;50.822;4.376;2024-01-25T12:44:00;9.50;99.90
23827;DHT22;12094;50.822;4.376;2024-01-25T12:46:33;9.60;99.90
23827;DHT22;12094;50.822;4.376;2024-01-25T12:49:01;9.50;99.90
23827;DHT22;12094;50.822;4.376;2024-01-25T12:51:33;9.50;99.90
23827;DHT22;12094;50.822;4.376;2024-01-25T12:54:00;9.50;99.90
23827;DHT22;12094;50.822;4.376;2024-01-25T12:56:29;9.60;99.90
23827;DHT22;12094;50.822;4.376;2024-01-25T12:59:00;9.60;99.90
23827;DHT22;12094;50.822;4.376;2024-01-25T13:01:27;9.60;99.90
23827;DHT22;12094;50.822;4.376;2024-01-25T13:03:55;9.60;99.90
23827;DHT22;12094;50.822;4.376;2024-01-25T13:06:23;9.70;99.90
23827;DHT22;12094;50.822;4.376;2024-01-25T13:08:50;9.70;99.90
23827;DHT22;12094;50.822;4.376;2024-01-25T13:11:19;9.70;99.90
23827;DHT22;12094;50.822;4.376;2024-01-25T13:13:47;9.70;99.90
23827;DHT22;12094;50.822;4.376;2024-01-25T13:19:21;9.80;99.90
23827;DHT22;12094;50.822;4.376;2024-01-25T13:21:51;9.80;99.90
23827;DHT22;12094;50.822;4.376;2024-01-25T13:24:30;9.90;99.90
23827;DHT22;12094;50.822;4.376;2024-01-25T13:26:58;9.90;99.90
23827;DHT22;12094;50.822;4.376;2024-01-25T13:29:26;10.00;99.90
23827;DHT22;12094;50.822;4.376;2024-01-25T13:31:53;10.00;99.90
23827;DHT22;12094;50.822;4.376;2024-01-25T13:34:21;10.00;99.90
23827;DHT22;12094;50.822;4.376;2024-01-25T13:36:51;10.00;99.90
23827;DHT22;12094;50.822;4.376;2024-01-25T13:39:22;10.00;99.90
23827;DHT22;12094;50.822;4.376;2024-01-25T13:41:53;10.00;99.90
23827;DHT22;12094;50.822;4.376;2024-01-25T13:47:09;10.10;99.90
23827;DHT22;12094;50.822;4.376;2024-01-25T13:49:38;10.10;99.90
23827;DHT22;12094;50.822;4.376;2024-01-25T13:52:14;10.10;99.90
23827;DHT22;12094;50.822;4.376;2024-01-25T13:58:38;10.20;99.90
23827;DHT22;12094;50.822;4.376;2024-01-25T14:01:10;10.30;99.90
23827;DHT22;12094;50.822;4.376;2024-01-25T14:03:38;10.40;99.90
23827;DHT22;12094;50.822;4.376;2024-01-25T14:09:05;10.30;99.90
23827;DHT22;12094;50.822;4.376;2024-01-25T14:14:57;10.30;99.90
23827;DHT22;12094;50.822;4.376;2024-01-25T14:20:30;10.30;99.90
23827;DHT22;12094;50.822;4.376;2024-01-25T14:23:03;10.20;99.90
23827;DHT22;12094;50.822;4.376;2024-01-25T14:36:23;10.30;99.90
23827;DHT22;12094;50.822;4.376;2024-01-25T14:38:56;10.40;99.90
23827;DHT22;12094;50.822;4.376;2024-01-25T14:45:24;10.40;99.90
23827;DHT22;12094;50.822;4.376;2024-01-25T14:54:48;10.30;99.90
23827;DHT22;12094;50.822;4.376;2024-01-25T14:57:28;10.30;99.90
23827;DHT22;12094;50.822;4.376;2024-01-25T15:07:39;10.40;99.90
23827;DHT22;12094;50.822;4.376;2024-01-25T15:10:10;10.40;99.90
23827;DHT22;12094;50.822;4.376;2024-01-25T15:16:33;10.30;99.90
23827;DHT22;12094;50.822;4.376;2024-01-25T15:23:01;10.30;99.90
23827;DHT22;12094;50.822;4.376;2024-01-25T15:29:29;10.30;99.90
23827;DHT22;12094;50.822;4.376;2024-01-25T15:38:32;10.40;99.90
23827;DHT22;12094;50.822;4.376;2024-01-25T15:49:01;10.30;99.90
23827;DHT22;12094;50.822;4.376;2024-01-25T15:54:33;10.30;99.90
23827;DHT22;12094;50.822;4.376;2024-01-25T15:57:03;10.40;99.90
23827;DHT22;12094;50.822;4.376;2024-01-25T15:59:41;10.40;99.90
23827;DHT22;12094;50.822;4.376;2024-01-25T16:08:13;10.40;99.90
23827;DHT22;12094;50.822;4.376;2024-01-25T16:10:43;10.50;99.90
23827;DHT22;12094;50.822;4.376;2024-01-25T16:13:14;10.50;99.90
23827;DHT22;12094;50.822;4.376;2024-01-25T16:18:16;10.50;99.90
23827;DHT22;12094;50.822;4.376;2024-01-25T16:20:47;10.40;99.90
23827;DHT22;12094;50.822;4.376;2024-01-25T16:23:18;10.50;99.90
23827;DHT22;12094;50.822;4.376;2024-01-25T16:25:49;10.50;99.90
23827;DHT22;12094;50.822;4.376;2024-01-25T16:28:20;10.50;99.90
23827;DHT22;12094;50.822;4.376;2024-01-25T16:33:23;10.50;99.90
23827;DHT22;12094;50.822;4.376;2024-01-25T16:35:54;10.50;99.90
23827;DHT22;12094;50.822;4.376;2024-01-25T16:38:25;10.50;99.90
23827;DHT22;12094;50.822;4.376;2024-01-25T16:40:52;10.60;99.90
23827;DHT22;12094;50.822;4.376;2024-01-25T16:43:19;10.60;99.90
23827;DHT22;12094;50.822;4.376;2024-01-25T16:45:46;10.60;99.90
23827;DHT22;12094;50.822;4.376;2024-01-25T16:48:14;10.60;99.90
23827;DHT22;12094;50.822;4.376;2024-01-25T16:50:44;10.60;99.90
23827;DHT22;12094;50.822;4.376;2024-01-25T16:53:12;10.50;99.90
23827;DHT22;12094;50.822;4.376;2024-01-25T16:55:43;10.50;99.90
23827;DHT22;12094;50.822;4.376;2024-01-25T16:58:11;10.50;99.90
23827;DHT22;12094;50.822;4.376;2024-01-25T17:00:41;10.50;99.90
23827;DHT22;12094;50.822;4.376;2024-01-25T17:03:11;10.50;99.90
23827;DHT22;12094;50.822;4.376;2024-01-25T17:05:39;10.50;99.90
23827;DHT22;12094;50.822;4.376;2024-01-25T17:08:07;10.60;99.90
23827;DHT22;12094;50.822;4.376;2024-01-25T17:10:46;10.60;99.90
23827;DHT22;12094;50.822;4.376;2024-01-25T17:13:19;10.50;99.90
23827;DHT22;12094;50.822;4.376;2024-01-25T17:15:46;10.60;99.90
23827;DHT22;12094;50.822;4.376;2024-01-25T17:18:12;10.50;99.90
23827;DHT22;12094;50.822;4.376;2024-01-25T17:20:40;10.50;99.90
23827;DHT22;12094;50.822;4.376;2024-01-25T17:23:07;10.50;99.90
23827;DHT22;12094;50.822;4.376;2024-01-25T17:25:37;10.50;99.90
23827;DHT22;12094;50.822;4.376;2024-01-25T17:28:11;10.50;99.90
23827;DHT22;12094;50.822;4.376;2024-01-25T17:30:41;10.50;99.90
23827;DHT22;12094;50.822;4.376;2024-01-25T17:42:08;10.50;99.90
23827;DHT22;12094;50.822;4.376;2024-01-25T17:44:35;10.50;99.90
23827;DHT22;12094;50.822;4.376;2024-01-25T17:47:02;10.50;99.90
23827;DHT22;12094;50.822;4.376;2024-01-25T17:49:31;10.60;99.90
23827;DHT22;12094;50.822;4.376;2024-01-25T17:54:53;10.60;99.90
23827;DHT22;12094;50.822;4.376;2024-01-25T17:57:20;10.50;99.90
23827;DHT22;12094;50.822;4.376;2024-01-25T17:59:48;10.70;99.90
23827;DHT22;12094;50.822;4.376;2024-01-25T18:02:17;10.70;99.90
23827;DHT22;12094;50.822;4.376;2024-01-25T18:04:44;10.70;99.90
23827;DHT22;12094;50.822;4.376;2024-01-25T18:07:11;10.70;99.90
23827;DHT22;12094;50.822;4.376;2024-01-25T18:09:38;10.70;99.90
23827;DHT22;12094;50.822;4.376;2024-01-25T18:12:05;10.70;99.90
23827;DHT22;12094;50.822;4.376;2024-01-25T18:14:32;10.70;99.90
23827;DHT22;12094;50.822;4.376;2024-01-25T18:17:01;10.70;99.90
23827;DHT22;12094;50.822;4.376;2024-01-25T18:19:30;10.70;99.90